Time;durP1;ratioP1;P1;durP2;ratioP2;P2;SDS_P1;SDS_P2;PMS_P1;PMS_P2;Temp;Humidity;BMP_temperature;BMP_pressure;BME280_temperature;BME280_humidity;BME280_pressure;Samples;Min_cycle;Max_cycle;Signal;HPM_P1;HPM_P2
2023/05/16 00:00:53;;;;;;;7.77;7.00;;;;;;;-143.84;87.54;43969.59;5069264;28;20451;-54
2023/05/16 00:03:20;;;;;;;10.30;7.53;;;;;;;-143.84;87.46;43986.72;5069631;28;21297;-54
2023/05/16 00:05:49;;;;;;;10.00;7.47;;;;;;;-143.84;87.46;44028.59;5069489;28;20441;-54
2023/05/16 00:08:16;;;;;;;15.03;7.13;;;;;;;-143.84;87.01;44119.97;5069243;28;21262;-54
2023/05/16 00:10:43;;;;;;;9.10;6.53;;;;;;;-143.84;86.92;44119.97;5069220;28;20440;-54
2023/05/16 00:13:11;;;;;;;10.30;7.83;;;;;;;-143.84;87.12;44095.22;5069343;28;20429;-54
2023/05/16 00:15:38;;;;;;;8.03;7.20;;;;;;;-143.84;86.74;44163.75;5069291;28;20441;-54
2023/05/16 00:18:06;;;;;;;9.00;7.00;;;;;;;-143.84;86.56;44203.72;5069004;28;20448;-54
2023/05/16 00:20:33;;;;;;;13.47;7.50;;;;;;;-143.84;86.74;44177.06;5068932;28;20942;-54
2023/05/16 00:23:02;;;;;;;15.80;7.97;;;;;;;-143.84;86.82;44127.56;5068833;28;20449;-54
2023/05/16 00:25:29;;;;;;;8.10;7.20;;;;;;;-143.84;87.07;44091.41;5068926;28;20491;-54
2023/05/16 00:27:57;;;;;;;14.80;7.77;;;;;;;-143.84;87.29;44072.38;5068689;28;20493;-54
2023/05/16 00:30:24;;;;;;;11.50;7.63;;;;;;;-143.84;87.15;44078.09;5068990;28;20446;-54
2023/05/16 00:32:51;;;;;;;9.23;7.30;;;;;;;-143.84;87.85;43922.00;5069061;28;20440;-54
2023/05/16 00:35:18;;;;;;;10.20;7.40;;;;;;;-143.84;87.93;43979.09;5068942;28;21222;-55
2023/05/16 00:37:45;;;;;;;11.57;7.50;;;;;;;-143.84;87.71;43982.91;5069001;28;20481;-54
2023/05/16 00:40:14;;;;;;;7.70;6.90;;;;;;;-143.84;87.74;43979.09;5069137;28;20452;-54
2023/05/16 00:42:41;;;;;;;10.43;8.53;;;;;;;-143.84;87.93;43963.88;5069068;28;20797;-55
2023/05/16 00:45:10;;;;;;;10.97;8.83;;;;;;;-143.84;88.46;43874.41;5068879;28;20506;-54
2023/05/16 00:47:37;;;;;;;11.77;8.43;;;;;;;-143.84;88.88;43821.09;5068595;28;20509;-55
2023/05/16 00:50:06;;;;;;;20.10;8.93;;;;;;;-143.84;89.45;43805.88;5068551;28;20468;-54
2023/05/16 00:52:33;;;;;;;12.50;9.40;;;;;;;-143.84;89.71;43779.22;5068322;28;20445;-54
2023/05/16 00:55:01;;;;;;;15.53;9.03;;;;;;;-143.84;90.04;43796.34;5068916;28;20437;-54
2023/05/16 00:57:30;;;;;;;8.67;7.90;;;;;;;-143.84;89.80;43746.88;5068611;28;20432;-54
2023/05/16 00:59:57;;;;;;;9.87;8.37;;;;;;;-143.84;89.73;43771.63;5068867;28;20869;-54
2023/05/16 01:02:27;;;;;;;14.53;8.60;;;;;;;-143.84;89.58;43786.84;5068752;28;20441;-54
2023/05/16 01:04:55;;;;;;;15.20;8.50;;;;;;;-143.84;89.41;43819.19;5068988;28;20448;-54
2023/05/16 01:07:22;;;;;;;12.83;9.80;;;;;;;-143.84;89.07;43836.34;5068745;28;21210;-54
2023/05/16 01:09:50;;;;;;;13.63;10.00;;;;;;;-143.84;89.30;43777.31;5069143;28;20437;-55
2023/05/16 01:12:28;;;;;;;10.37;9.47;;;;;;;-143.84;89.38;43783.03;5069060;28;21246;-55
2023/05/16 01:15:05;;;;;;;16.40;10.87;;;;;;;-143.84;89.39;43775.41;5068553;28;20446;-54
2023/05/16 01:17:42;;;;;;;11.90;10.80;;;;;;;-143.84;89.78;43777.31;5068424;28;20449;-64
2023/05/16 01:20:19;;;;;;;19.40;14.57;;;;;;;-143.84;89.75;43752.59;5068486;28;20993;-64
2023/05/16 01:22:56;;;;;;;24.17;20.00;;;;;;;-143.84;90.16;43767.81;5068814;28;20433;-64
2023/05/16 01:25:38;;;;;;;23.17;20.77;;;;;;;-143.84;90.49;43760.19;5068873;28;20436;-64
2023/05/16 01:28:08;;;;;;;24.77;20.70;;;;;;;-143.84;90.89;43760.19;5068162;28;20492;-64
2023/05/16 01:30:37;;;;;;;29.37;24.10;;;;;;;-143.84;91.04;43771.63;5068805;28;20874;-64
2023/05/16 01:33:04;;;;;;;38.27;24.23;;;;;;;-143.84;91.57;43823.00;5068543;28;20871;-55
2023/05/16 01:35:32;;;;;;;27.77;18.77;;;;;;;-143.84;91.86;43807.78;5068292;28;20449;-54
2023/05/16 01:38:09;;;;;;;24.63;16.67;;;;;;;-143.84;92.06;43821.09;5068663;28;20433;-55
2023/05/16 01:40:51;;;;;;;29.43;16.70;;;;;;;-143.84;92.18;43847.75;5068515;28;20445;-54
2023/05/16 01:43:29;;;;;;;23.10;14.90;;;;;;;-143.84;92.45;43824.91;5068209;28;20461;-54
2023/05/16 01:46:03;;;;;;;22.23;14.60;;;;;;;-143.84;92.67;43809.69;5068179;28;20875;-54
2023/05/16 01:48:35;;;;;;;14.73;13.07;;;;;;;-143.84;92.69;43834.44;5067958;28;20480;-55
2023/05/16 01:51:04;;;;;;;15.43;12.07;;;;;;;-143.84;92.86;43857.28;5068426;28;20513;-54
2023/05/16 01:53:36;;;;;;;28.17;14.07;;;;;;;-143.84;93.13;43870.59;5068326;28;20433;-55
2023/05/16 01:56:09;;;;;;;16.20;11.00;;;;;;;-143.84;93.27;43868.69;5068308;28;20441;-55
2023/05/16 01:58:38;;;;;;;15.10;10.07;;;;;;;-143.84;93.44;43862.97;5068178;28;20467;-54
2023/05/16 02:01:06;;;;;;;17.60;10.03;;;;;;;-143.84;93.60;43883.91;5068390;28;20518;-55
2023/05/16 02:03:33;;;;;;;27.30;11.53;;;;;;;-143.84;93.79;43904.84;5068238;28;20439;-54
2023/05/16 02:06:01;;;;;;;15.23;10.27;;;;;;;-143.84;93.91;43895.34;5070727;28;21079;-54
2023/05/16 02:08:29;;;;;;;24.50;10.80;;;;;;;-143.84;93.91;43895.34;5071681;28;20477;-55
2023/05/16 02:10:56;;;;;;;18.70;9.70;;;;;;;-143.84;93.88;43906.75;5071317;28;20453;-54
2023/05/16 02:13:23;;;;;;;15.50;10.43;;;;;;;-143.84;93.88;43874.41;5071189;28;20437;-54
2023/05/16 02:15:52;;;;;;;14.50;10.03;;;;;;;-143.84;93.77;43893.44;5071515;28;20442;-54
2023/05/16 02:18:19;;;;;;;12.40;9.80;;;;;;;-143.84;93.51;43872.50;5071568;28;20441;-54
2023/05/16 02:20:46;;;;;;;16.90;9.73;;;;;;;-143.84;93.51;43864.88;5071574;28;20495;-54
2023/05/16 02:23:13;;;;;;;11.67;9.37;;;;;;;-143.84;93.61;43883.91;5071437;28;20447;-54
2023/05/16 02:25:40;;;;;;;11.87;9.50;;;;;;;-143.84;93.21;43859.19;5071010;28;20510;-54
2023/05/16 02:28:07;;;;;;;12.73;9.73;;;;;;;-143.84;92.94;43861.06;5070839;28;20541;-55
2023/05/16 02:30:34;;;;;;;13.53;10.80;;;;;;;-143.84;92.96;43857.28;5071288;28;20437;-54
2023/05/16 02:33:03;;;;;;;22.53;11.10;;;;;;;-143.84;93.04;43874.41;5071130;28;20442;-54
2023/05/16 02:35:30;;;;;;;16.13;10.60;;;;;;;-143.84;93.31;43878.22;5071338;28;20495;-55
2023/05/16 02:37:57;;;;;;;16.93;11.67;;;;;;;-143.84;93.42;43891.53;5071104;28;20467;-54
2023/05/16 02:40:24;;;;;;;14.03;10.27;;;;;;;-143.84;93.59;43887.72;5070860;28;20524;-55
2023/05/16 02:42:51;;;;;;;14.23;10.80;;;;;;;-143.84;93.77;43901.06;5069559;28;20450;-55
2023/05/16 02:45:18;;;;;;;16.93;11.93;;;;;;;-143.84;94.13;43902.97;5069577;28;20510;-56
2023/05/16 02:47:45;;;;;;;13.07;11.60;;;;;;;-143.84;94.42;43912.47;5069446;28;20481;-56
2023/05/16 02:50:14;;;;;;;14.90;12.30;;;;;;;-143.84;94.64;43927.69;5069383;28;20514;-56
2023/05/16 02:52:41;;;;;;;19.17;12.40;;;;;;;-143.84;94.74;43933.41;5069600;28;20511;-55
2023/05/16 02:55:09;;;;;;;13.23;11.80;;;;;;;-143.84;94.89;43956.25;5069482;28;20433;-56
2023/05/16 02:57:36;;;;;;;19.93;12.30;;;;;;;-143.84;94.97;43952.44;5070561;28;20450;-56
2023/05/16 03:00:05;;;;;;;24.63;14.50;;;;;;;-143.84;95.36;43958.16;5071007;28;20436;-56
2023/05/16 03:02:32;;;;;;;24.57;12.77;;;;;;;-143.84;95.45;43967.69;5070726;28;20437;-56
2023/05/16 03:04:59;;;;;;;14.43;12.23;;;;;;;-143.84;95.70;43977.19;5070754;28;21145;-56
2023/05/16 03:07:27;;;;;;;16.03;12.90;;;;;;;-143.84;95.58;43979.09;5069984;28;20446;-56
2023/05/16 03:09:54;;;;;;;15.53;13.57;;;;;;;-143.84;95.72;43977.19;5069903;28;20534;-56
2023/05/16 03:12:22;;;;;;;19.80;13.27;;;;;;;-143.84;95.81;43982.91;5070361;28;20440;-56
2023/05/16 03:14:50;;;;;;;19.37;13.30;;;;;;;-143.84;95.76;43984.81;5070444;28;21243;-56
2023/05/16 03:17:17;;;;;;;17.03;14.30;;;;;;;-143.84;95.83;43992.41;5069932;28;20874;-56
2023/05/16 03:19:44;;;;;;;23.90;14.53;;;;;;;-143.84;95.94;43990.53;5070180;28;20502;-55
2023/05/16 03:22:12;;;;;;;14.70;12.70;;;;;;;-143.84;95.96;44007.66;5070244;28;20444;-55
2023/05/16 03:24:40;;;;;;;27.37;14.10;;;;;;;-143.84;96.09;44007.66;5070218;28;20532;-64
2023/05/16 03:27:08;;;;;;;25.17;13.03;;;;;;;-143.84;96.36;44022.88;5069982;28;20542;-64
2023/05/16 03:29:35;;;;;;;24.77;12.57;;;;;;;-143.84;96.50;44015.25;5069699;28;20610;-62
2023/05/16 03:32:02;;;;;;;19.17;11.57;;;;;;;-143.84;96.44;44019.06;5069652;28;20497;-62
2023/05/16 03:34:29;;;;;;;21.33;12.90;;;;;;;-143.84;96.48;44011.47;5069704;28;20869;-62
2023/05/16 03:36:56;;;;;;;16.63;12.67;;;;;;;-143.84;96.55;44009.56;5069112;28;20525;-62
2023/05/16 03:39:23;;;;;;;15.70;12.40;;;;;;;-143.84;96.43;44020.97;5069626;28;20444;-62
2023/05/16 03:41:54;;;;;;;21.23;13.80;;;;;;;-143.84;96.27;44020.97;5069845;28;20504;-62
2023/05/16 03:44:22;;;;;;;25.60;13.33;;;;;;;-143.84;96.19;44003.84;5069618;28;20953;-62
2023/05/16 03:46:50;;;;;;;16.80;13.40;;;;;;;-143.84;96.07;44003.84;5069569;28;20449;-62
2023/05/16 03:49:17;;;;;;;15.50;11.67;;;;;;;-143.84;95.99;43994.31;5069935;28;20985;-63
2023/05/16 03:51:44;;;;;;;19.60;12.17;;;;;;;-143.84;95.99;43992.41;5069589;28;20448;-62
2023/05/16 03:54:11;;;;;;;22.07;14.13;;;;;;;-143.84;95.79;44001.94;5069612;28;20437;-62
2023/05/16 03:56:38;;;;;;;22.10;11.90;;;;;;;-143.84;95.76;44003.84;5069639;28;20442;-62
2023/05/16 03:59:06;;;;;;;29.97;12.30;;;;;;;-143.84;95.73;43998.13;5069597;28;20514;-62
2023/05/16 04:01:33;;;;;;;16.10;11.00;;;;;;;-143.84;95.64;43990.53;5069313;28;20442;-63
2023/05/16 04:04:01;;;;;;;18.40;12.27;;;;;;;-143.84;95.73;44001.94;5068963;28;20445;-64
2023/05/16 04:06:28;;;;;;;21.10;11.50;;;;;;;-143.84;95.70;44000.03;5069003;28;20445;-63
2023/05/16 04:08:55;;;;;;;17.67;11.83;;;;;;;-143.84;95.73;43979.09;5068904;28;20468;-63
2023/05/16 04:11:22;;;;;;;21.07;11.53;;;;;;;-143.84;95.55;43988.63;5069083;28;20433;-62
2023/05/16 04:13:49;;;;;;;18.93;11.07;;;;;;;-143.84;95.59;43990.53;5066222;28;20437;-62
2023/05/16 04:16:17;;;;;;;19.73;11.70;;;;;;;-143.84;95.59;43990.53;5069134;28;20467;-62
2023/05/16 04:18:45;;;;;;;17.10;11.27;;;;;;;-143.84;95.59;43979.09;5069229;28;20441;-62
2023/05/16 04:21:14;;;;;;;15.87;10.67;;;;;;;-143.84;95.75;43992.41;5069128;28;20445;-62
2023/05/16 04:23:41;;;;;;;17.87;11.37;;;;;;;-143.84;95.76;43990.53;5069135;28;20452;-62
2023/05/16 04:26:08;;;;;;;19.70;10.63;;;;;;;-143.84;95.68;43971.47;5069064;28;20456;-62
2023/05/16 04:28:35;;;;;;;19.93;10.87;;;;;;;-143.84;95.55;43986.72;5067848;28;20496;-62
2023/05/16 04:31:03;;;;;;;24.33;10.80;;;;;;;-143.84;95.61;43986.72;5068843;28;20442;-62
2023/05/16 04:33:31;;;;;;;16.13;9.80;;;;;;;-143.84;95.32;43981.00;5069088;28;20429;-62
2023/05/16 04:35:59;;;;;;;15.07;9.73;;;;;;;-143.84;95.12;43973.38;5069298;28;20471;-62
2023/05/16 04:38:26;;;;;;;16.07;9.77;;;;;;;-143.84;95.03;43952.44;5068485;28;20472;-62
2023/05/16 04:40:53;;;;;;;20.47;10.40;;;;;;;-143.84;94.88;43958.16;5069164;28;20433;-62
2023/05/16 04:43:20;;;;;;;27.17;9.87;;;;;;;-143.84;95.06;43958.16;5069197;28;20904;-62
2023/05/16 04:45:49;;;;;;;12.40;8.83;;;;;;;-143.84;94.71;43950.53;5068931;28;20473;-62
2023/05/16 04:48:16;;;;;;;14.10;9.03;;;;;;;-143.84;94.61;43933.41;5068882;28;20532;-62
2023/05/16 04:50:45;;;;;;;20.27;10.50;;;;;;;-143.84;94.40;43935.31;5068906;28;20444;-62
2023/05/16 04:53:13;;;;;;;19.97;8.80;;;;;;;-143.84;94.28;43937.22;5068974;28;20446;-62
2023/05/16 04:55:41;;;;;;;16.10;9.17;;;;;;;-143.84;94.55;43954.34;5068645;28;20445;-62
2023/05/16 04:58:08;;;;;;;21.67;9.10;;;;;;;-143.84;94.52;43937.22;5068376;28;20457;-62
2023/05/16 05:00:35;;;;;;;19.93;9.40;;;;;;;-143.84;94.50;43922.00;5068660;28;20433;-61
2023/05/16 05:03:02;;;;;;;12.23;8.23;;;;;;;-143.84;94.19;43948.63;5068747;28;20440;-62
2023/05/16 05:05:29;;;;;;;21.60;8.13;;;;;;;-143.84;94.22;43920.09;5068556;28;20433;-62
2023/05/16 05:07:58;;;;;;;18.23;9.23;;;;;;;-143.84;94.28;43931.50;5068757;28;20444;-62
2023/05/16 05:10:26;;;;;;;13.03;8.70;;;;;;;-143.84;94.17;43937.22;5068613;28;20485;-61
2023/05/16 05:12:53;;;;;;;14.87;8.40;;;;;;;-143.84;93.83;43920.09;5068558;28;20503;-61
2023/05/16 05:15:20;;;;;;;25.87;8.80;;;;;;;-143.84;93.65;43922.00;5068514;28;20441;-61
2023/05/16 05:17:47;;;;;;;15.97;7.80;;;;;;;-143.84;92.77;43878.22;5068875;28;20590;-62
2023/05/16 05:20:15;;;;;;;11.23;6.90;;;;;;;-143.84;92.32;43868.69;5068652;28;20433;-61
2023/05/16 05:22:42;;;;;;;12.50;7.20;;;;;;;-143.84;91.12;43821.09;5068280;28;20445;-61
2023/05/16 05:25:11;;;;;;;14.43;7.00;;;;;;;-143.84;89.75;43764.00;5068096;28;20514;-62
2023/05/16 05:27:38;;;;;;;14.07;7.80;;;;;;;-143.84;88.87;43750.69;5067750;28;21150;-61
2023/05/16 05:30:06;;;;;;;11.83;6.27;;;;;;;-143.84;88.44;43807.78;5068559;28;20562;-61
2023/05/16 05:32:33;;;;;;;12.80;6.40;;;;;;;-143.84;86.65;43990.53;5068385;28;20490;-61
2023/05/16 05:35:01;;;;;;;11.33;6.73;;;;;;;-143.84;86.22;44078.09;5068287;28;20865;-63
2023/05/16 05:37:28;;;;;;;17.03;5.97;;;;;;;-143.84;84.20;44546.41;5068674;28;20500;-61
2023/05/16 05:39:55;;;;;;;13.30;7.07;;;;;;;-143.84;83.65;44658.75;5070986;28;20445;-61
2023/05/16 05:42:23;;;;;;;15.70;7.63;;;;;;;-143.84;83.38;44733.00;5072146;28;20796;-61
2023/05/16 05:44:51;;;;;;;16.73;8.20;;;;;;;-143.84;82.84;44763.47;5072109;28;20445;-61
2023/05/16 05:47:18;;;;;;;13.07;7.67;;;;;;;-143.84;82.66;44780.59;5071953;28;20448;-61
2023/05/16 05:49:45;;;;;;;10.10;6.93;;;;;;;-143.84;82.44;44828.19;5071866;28;20821;-61
2023/05/16 05:52:12;;;;;;;14.43;6.90;;;;;;;-143.84;82.22;44837.72;5072247;28;20426;-61
2023/05/16 05:54:40;;;;;;;18.20;7.50;;;;;;;-143.84;82.08;44841.53;5071527;28;20441;-61
2023/05/16 05:57:07;;;;;;;11.13;7.03;;;;;;;-143.84;81.70;44856.75;5071606;28;20498;-61
2023/05/16 05:59:35;;;;;;;13.67;6.03;;;;;;;-143.84;81.25;44915.78;5071623;28;20447;-61
2023/05/16 06:02:02;;;;;;;10.27;6.03;;;;;;;-143.84;81.45;44873.88;5071476;28;20526;-61
2023/05/16 06:04:29;;;;;;;15.03;6.77;;;;;;;-143.84;81.70;44868.19;5071679;28;20446;-61
2023/05/16 06:06:57;;;;;;;14.37;5.70;;;;;;;-143.84;80.46;44925.31;5071682;28;20954;-61
2023/05/16 06:09:24;;;;;;;10.00;6.20;;;;;;;-143.84;79.25;44950.06;5071660;28;20481;-61
2023/05/16 06:11:51;;;;;;;18.83;6.97;;;;;;;-143.84;78.15;45003.38;5071815;28;20479;-61
2023/05/16 06:14:18;;;;;;;10.07;5.90;;;;;;;-143.84;76.81;45007.19;5071578;28;20508;-61
2023/05/16 06:16:46;;;;;;;13.13;5.87;;;;;;;-143.84;76.54;45018.59;5071319;28;20443;-61
2023/05/16 06:19:15;;;;;;;13.60;5.70;;;;;;;-143.84;75.54;45028.13;5072030;28;21377;-61
2023/05/16 06:21:42;;;;;;;22.07;5.37;;;;;;;-143.84;75.07;45031.94;5071688;28;20443;-61
2023/05/16 06:24:11;;;;;;;12.43;5.37;;;;;;;-143.84;73.94;45068.13;5070738;28;20443;-61
2023/05/16 06:26:38;;;;;;;11.50;5.60;;;;;;;-143.84;71.57;45054.78;5070766;28;20534;-61
2023/05/16 06:29:05;;;;;;;15.33;5.00;;;;;;;-143.84;69.23;45079.53;5071282;28;20494;-61
2023/05/16 06:31:32;;;;;;;7.93;4.80;;;;;;;-143.84;67.64;45075.72;5071227;28;20477;-61
2023/05/16 06:34:00;;;;;;;5.97;4.77;;;;;;;-143.84;65.65;45066.22;5071106;28;20497;-61
2023/05/16 06:36:28;;;;;;;10.60;6.17;;;;;;;-143.84;65.45;45077.63;5071194;28;20448;-61
2023/05/16 06:38:55;;;;;;;16.73;5.87;;;;;;;-143.84;66.36;45035.75;5070978;28;20469;-61
2023/05/16 06:41:22;;;;;;;14.00;6.60;;;;;;;-143.84;65.18;45049.06;5071210;28;20441;-61
2023/05/16 06:43:49;;;;;;;7.63;6.00;;;;;;;-143.84;63.34;45035.75;5070994;28;20498;-61
2023/05/16 06:46:16;;;;;;;14.77;6.27;;;;;;;-143.84;64.04;45066.22;5071332;28;20452;-61
2023/05/16 06:48:43;;;;;;;7.43;5.27;;;;;;;-143.84;62.19;45041.44;5071124;28;20499;-61
2023/05/16 06:51:12;;;;;;;7.10;5.17;;;;;;;-143.84;61.65;45081.44;5070015;28;20514;-61
2023/05/16 06:53:39;;;;;;;12.43;5.00;;;;;;;-143.84;60.75;45054.78;5070679;28;20445;-61
2023/05/16 06:56:06;;;;;;;5.60;4.67;;;;;;;-143.84;61.49;45050.97;5070386;28;20444;-61
2023/05/16 06:58:37;;;;;;;9.83;5.00;;;;;;;-143.84;61.14;45039.53;5070198;28;21037;-61
2023/05/16 07:01:04;;;;;;;10.13;5.17;;;;;;;-143.84;61.83;45075.72;5070614;28;20501;-61
2023/05/16 07:03:31;;;;;;;8.50;4.50;;;;;;;-143.84;60.89;45045.25;5070817;28;20445;-61
2023/05/16 07:05:59;;;;;;;11.17;5.10;;;;;;;-143.84;60.92;45049.06;5070456;28;20437;-61
2023/05/16 07:08:27;;;;;;;13.17;4.63;;;;;;;-143.84;60.87;45056.69;5070657;28;20996;-61
2023/05/16 07:10:54;;;;;;;10.60;4.87;;;;;;;-143.84;57.16;45043.34;5070394;28;20835;-61
2023/05/16 07:13:21;;;;;;;15.30;5.37;;;;;;;-143.84;57.10;45016.69;5070494;28;20442;-61
2023/05/16 07:15:48;;;;;;;13.57;5.00;;;;;;;-143.84;54.52;45041.44;5070191;28;20920;-61
2023/05/16 07:18:15;;;;;;;26.93;6.50;;;;;;;-143.84;53.71;45047.16;5070477;28;20931;-61
2023/05/16 07:20:42;;;;;;;13.73;4.97;;;;;;;-143.84;52.87;45028.13;5070281;28;20937;-61
2023/05/16 07:23:10;;;;;;;17.77;5.23;;;;;;;-143.84;53.61;45035.75;5070299;28;20996;-61
2023/05/16 07:25:38;;;;;;;9.23;5.50;;;;;;;-143.84;51.67;45037.66;5069878;28;20454;-61
2023/05/16 07:28:06;;;;;;;10.10;4.10;;;;;;;-143.84;51.11;45045.25;5069277;28;20490;-61
2023/05/16 07:30:33;;;;;;;15.83;5.40;;;;;;;-143.84;52.16;45024.31;5069875;28;20838;-61
2023/05/16 07:33:00;;;;;;;8.03;4.90;;;;;;;-143.84;51.40;45031.94;5070002;28;20446;-61
2023/05/16 07:35:27;;;;;;;8.03;4.50;;;;;;;-143.84;51.87;45024.31;5070087;28;20471;-61
2023/05/16 07:37:54;;;;;;;8.57;4.17;;;;;;;-143.84;51.30;45024.31;5069864;28;20438;-61
2023/05/16 07:40:26;;;;;;;11.23;4.33;;;;;;;-143.84;51.17;45037.66;5069815;28;20935;-61
2023/05/16 07:42:55;;;;;;;11.43;5.03;;;;;;;-143.84;50.99;45045.25;5070321;28;20438;-61
2023/05/16 07:45:22;;;;;;;15.83;5.60;;;;;;;-143.84;51.37;45028.13;5069789;28;20438;-62
2023/05/16 07:47:50;;;;;;;12.37;5.50;;;;;;;-143.84;50.73;45035.75;5069661;28;20453;-61
2023/05/16 07:50:17;;;;;;;9.47;4.30;;;;;;;-143.84;50.36;45031.94;5069517;28;20488;-61
2023/05/16 07:52:44;;;;;;;7.00;4.07;;;;;;;-143.84;51.22;45054.78;5069228;28;20865;-61
2023/05/16 07:55:11;;;;;;;6.83;5.00;;;;;;;-143.84;51.30;45045.25;5069099;28;20437;-61
2023/05/16 07:57:38;;;;;;;14.07;4.60;;;;;;;-143.84;52.05;45035.75;5068962;28;20439;-61
2023/05/16 08:00:08;;;;;;;20.80;5.00;;;;;;;-143.84;51.88;45068.13;5068702;28;20510;-61
2023/05/16 08:02:36;;;;;;;12.40;4.73;;;;;;;-143.84;51.32;45041.44;5069102;28;20486;-62
2023/05/16 08:05:03;;;;;;;19.83;5.30;;;;;;;-143.84;50.51;45045.25;5069171;28;20434;-61
2023/05/16 08:07:30;;;;;;;17.00;4.40;;;;;;;-143.84;49.76;45047.16;5069347;28;20503;-61
2023/05/16 08:09:57;;;;;;;16.00;4.90;;;;;;;-143.84;50.96;45037.66;5069269;28;21033;-61
2023/05/16 08:12:25;;;;;;;12.43;5.40;;;;;;;-143.84;49.83;45039.53;5069435;28;20928;-61
2023/05/16 08:14:52;;;;;;;9.27;5.10;;;;;;;-143.84;48.90;45047.16;5069270;28;20434;-61
2023/05/16 08:17:21;;;;;;;9.97;4.90;;;;;;;-143.84;49.55;45016.69;5069294;28;20503;-63
2023/05/16 08:19:48;;;;;;;9.27;4.70;;;;;;;-143.84;48.09;45018.59;5069099;28;20455;-61
2023/05/16 08:22:15;;;;;;;16.40;4.93;;;;;;;-143.84;48.36;45050.97;5069454;28;20503;-61
2023/05/16 08:24:42;;;;;;;7.63;4.57;;;;;;;-143.84;46.79;45031.94;5069112;28;20496;-61
2023/05/16 08:27:10;;;;;;;10.50;4.83;;;;;;;-143.84;46.91;45007.19;5068830;28;20490;-61
2023/05/16 08:29:38;;;;;;;12.50;4.80;;;;;;;-143.84;49.37;45031.94;5068453;28;20490;-63
2023/05/16 08:32:06;;;;;;;13.30;4.30;;;;;;;-143.84;47.20;45020.50;5068444;28;20937;-61
2023/05/16 08:34:35;;;;;;;8.97;4.93;;;;;;;-143.84;47.22;45037.66;5069279;28;20442;-61
2023/05/16 08:37:03;;;;;;;11.93;5.27;;;;;;;-143.84;46.92;45030.03;5068918;28;20437;-61
2023/05/16 08:39:30;;;;;;;9.60;3.83;;;;;;;-143.84;49.05;45018.59;5069001;28;20491;-61
2023/05/16 08:41:57;;;;;;;12.90;4.73;;;;;;;-143.84;47.99;45030.03;5068822;28;20449;-61
2023/05/16 08:44:25;;;;;;;5.70;4.57;;;;;;;-143.84;47.40;45033.84;5068975;28;20546;-61
2023/05/16 08:46:53;;;;;;;9.77;5.03;;;;;;;-143.84;47.76;45041.44;5068951;28;20439;-61
2023/05/16 08:49:20;;;;;;;15.83;5.00;;;;;;;-143.84;47.86;45045.25;5068890;28;20446;-61
2023/05/16 08:51:52;;;;;;;15.47;5.27;;;;;;;-143.84;47.77;45022.41;5068834;28;20948;-61
2023/05/16 08:54:20;;;;;;;7.20;4.90;;;;;;;-143.84;49.34;45022.41;5068867;28;20500;-61
2023/05/16 08:56:49;;;;;;;9.97;3.77;;;;;;;-143.84;48.14;45022.41;5068617;28;20443;-62
2023/05/16 08:59:17;;;;;;;15.60;4.80;;;;;;;-143.84;48.33;45012.88;5068784;28;20526;-61
2023/05/16 09:01:45;;;;;;;9.40;4.47;;;;;;;-143.84;48.68;45018.59;5068423;28;20449;-62
2023/05/16 09:04:12;;;;;;;13.93;5.30;;;;;;;-143.84;48.52;45037.66;5068417;28;20434;-62
2023/05/16 09:06:39;;;;;;;6.47;4.57;;;;;;;-143.84;49.00;45014.78;5068154;28;20450;-62
2023/05/16 09:09:09;;;;;;;5.87;3.80;;;;;;;-143.84;48.12;45037.66;5068947;28;20438;-62
2023/05/16 09:11:36;;;;;;;12.93;4.30;;;;;;;-143.84;46.43;45033.84;5068446;28;20492;-62
2023/05/16 09:14:04;;;;;;;8.83;5.10;;;;;;;-143.84;47.84;45058.59;5069907;28;20477;-62
2023/05/16 09:16:31;;;;;;;11.27;4.30;;;;;;;-143.84;47.53;45054.78;5072827;28;20443;-62
2023/05/16 09:19:00;;;;;;;13.10;4.17;;;;;;;-143.84;48.67;45045.25;5072640;28;20472;-63
2023/05/16 09:21:30;;;;;;;26.00;4.70;;;;;;;-143.84;49.69;45037.66;5072597;28;20448;-61
2023/05/16 09:24:03;;;;;;;13.70;4.23;;;;;;;-143.84;49.36;45026.22;5072476;28;20938;-61
2023/05/16 09:26:33;;;;;;;10.73;4.43;;;;;;;-143.84;50.49;45041.44;5072732;28;20543;-61
2023/05/16 09:29:00;;;;;;;10.17;3.97;;;;;;;-143.84;51.56;45031.94;5072196;28;20449;-61
2023/05/16 09:31:35;;;;;;;12.27;4.90;;;;;;;-143.84;48.85;45050.97;5072429;28;20512;-62
2023/05/16 09:34:02;;;;;;;8.13;4.83;;;;;;;-143.84;48.73;45024.31;5072436;28;20878;-61
2023/05/16 09:36:32;;;;;;;13.23;5.70;;;;;;;-143.84;47.96;45037.66;5072277;28;20964;-61
2023/05/16 09:39:00;;;;;;;11.70;5.33;;;;;;;-143.84;47.13;45039.53;5071973;28;20442;-61
2023/05/16 09:41:27;;;;;;;9.73;4.80;;;;;;;-143.84;45.67;45035.75;5072099;28;20449;-61
2023/05/16 09:43:56;;;;;;;20.87;4.43;;;;;;;-143.84;47.71;45035.75;5071812;28;20536;-61
2023/05/16 09:46:27;;;;;;;7.17;4.73;;;;;;;-143.84;46.78;45001.47;5072146;28;20461;-62
2023/05/16 09:48:55;;;;;;;22.10;5.00;;;;;;;-143.84;47.63;45041.44;5072023;28;20454;-61
2023/05/16 09:51:23;;;;;;;5.67;4.03;;;;;;;-143.84;47.97;45020.50;5071903;28;20488;-61
2023/05/16 09:53:50;;;;;;;4.83;3.73;;;;;;;-143.84;46.42;45031.94;5071862;28;20451;-61
2023/05/16 09:56:18;;;;;;;8.50;4.90;;;;;;;-143.84;46.93;45033.84;5072032;28;20446;-61
2023/05/16 09:58:46;;;;;;;11.87;3.80;;;;;;;-143.84;47.18;45043.34;5071718;28;20449;-61
2023/05/16 10:01:15;;;;;;;8.37;4.40;;;;;;;-143.84;47.23;45033.84;5071854;28;20507;-61
2023/05/16 10:03:42;;;;;;;15.43;4.80;;;;;;;-143.84;46.99;45047.16;5071653;28;20437;-63
2023/05/16 10:06:12;;;;;;;11.77;4.13;;;;;;;-143.84;47.41;45031.94;5071710;28;20440;-62
2023/05/16 10:08:42;;;;;;;13.50;5.20;;;;;;;-143.84;46.51;45010.97;5071483;28;20506;-62
2023/05/16 10:11:11;;;;;;;10.37;4.43;;;;;;;-143.84;45.75;45056.69;5071788;28;20864;-61
2023/05/16 10:13:39;;;;;;;12.70;4.57;;;;;;;-143.84;45.43;45016.69;5071121;28;20442;-61
2023/05/16 10:16:08;;;;;;;17.83;4.57;;;;;;;-143.84;46.32;45030.03;5070944;28;20450;-62
2023/05/16 10:18:38;;;;;;;14.03;5.33;;;;;;;-143.84;45.49;45035.75;5071180;28;20490;-61
2023/05/16 10:21:07;;;;;;;7.83;4.93;;;;;;;-143.84;45.63;45049.06;5071662;28;20990;-61
2023/05/16 10:23:35;;;;;;;6.17;4.33;;;;;;;-143.84;45.33;45020.50;5071655;28;20438;-61
2023/05/16 10:26:04;;;;;;;16.03;5.07;;;;;;;-143.84;45.81;45009.09;5070287;28;21000;-61
2023/05/16 10:28:32;;;;;;;6.77;4.57;;;;;;;-143.84;45.44;45052.88;5070958;28;20495;-63
2023/05/16 10:31:01;;;;;;;12.43;4.70;;;;;;;-143.84;45.90;45024.31;5071257;28;20909;-62
2023/05/16 10:33:29;;;;;;;24.83;4.70;;;;;;;-143.84;46.55;45022.41;5071271;28;20476;-62
2023/05/16 10:35:57;;;;;;;7.53;4.43;;;;;;;-143.84;44.84;45049.06;5071216;28;20512;-62
2023/05/16 10:38:25;;;;;;;11.50;4.83;;;;;;;-143.84;46.06;45001.47;5071295;28;20894;-61
2023/05/16 10:40:53;;;;;;;14.00;5.00;;;;;;;-143.84;45.70;45024.31;5071186;28;20447;-61
2023/05/16 10:43:25;;;;;;;16.50;5.07;;;;;;;-143.84;46.45;45022.41;5071185;28;20459;-61
2023/05/16 10:45:56;;;;;;;11.27;4.60;;;;;;;-143.84;48.31;45028.13;5071170;28;20438;-61
2023/05/16 10:48:29;;;;;;;7.70;4.30;;;;;;;-143.84;47.69;45026.22;5070804;28;20450;-61
2023/05/16 10:50:58;;;;;;;7.23;5.10;;;;;;;-143.84;47.73;45047.16;5070609;28;20473;-61
2023/05/16 10:53:31;;;;;;;11.07;4.83;;;;;;;-143.84;48.71;45039.53;5070785;28;20975;-61
2023/05/16 10:56:09;;;;;;;10.10;5.00;;;;;;;-143.84;46.86;45033.84;5070974;28;20517;-61
2023/05/16 10:58:43;;;;;;;9.70;4.40;;;;;;;-143.84;47.15;45030.03;5070858;28;20437;-61
2023/05/16 11:01:24;;;;;;;5.27;3.93;;;;;;;-143.84;47.39;45020.50;5070621;28;20442;-59
2023/05/16 11:04:09;;;;;;;12.17;5.40;;;;;;;-143.84;45.55;45045.25;5070667;28;20445;-59
2023/05/16 11:06:55;;;;;;;6.63;3.83;;;;;;;-143.84;45.99;45010.97;5070597;28;20481;-58
2023/05/16 11:09:27;;;;;;;11.33;4.40;;;;;;;-143.84;44.66;45016.69;5070775;28;21342;-58
2023/05/16 11:12:02;;;;;;;8.13;4.00;;;;;;;-143.84;44.44;45012.88;5070633;28;20484;-54
2023/05/16 11:14:37;;;;;;;6.23;4.30;;;;;;;-143.84;44.18;45024.31;5070599;28;20495;-54